createdAt,value
2024-01-20T00:01:24.727Z,98.21
2024-01-20T00:03:53.234Z,97.98
2024-01-20T00:06:20.747Z,97.88
2024-01-20T00:08:48.041Z,98.72
2024-01-20T00:11:15.319Z,97.87
2024-01-20T00:13:42.576Z,98.30
2024-01-20T00:16:10.342Z,97.97
2024-01-20T00:18:40.878Z,98.06
2024-01-20T00:21:08.175Z,97.40
2024-01-20T00:23:35.558Z,97.24
2024-01-20T00:26:02.643Z,97.83
2024-01-20T00:28:30.248Z,97.89
2024-01-20T00:30:57.462Z,97.60
2024-01-20T00:33:24.945Z,97.68
2024-01-20T00:35:52.246Z,96.69
2024-01-20T00:38:19.864Z,96.62
2024-01-20T00:40:47.065Z,96.75
2024-01-20T00:43:15.062Z,96.16
2024-01-20T00:45:42.466Z,96.89
2024-01-20T00:48:10.466Z,96.02
2024-01-20T00:50:37.910Z,96.45
2024-01-20T00:53:05.242Z,96.34
2024-01-20T00:55:32.403Z,95.39
2024-01-20T00:58:00.020Z,95.24
2024-01-20T01:00:27.292Z,95.86
2024-01-20T01:02:55.384Z,95.33
2024-01-20T01:05:22.666Z,95.54
2024-01-20T01:07:49.819Z,95.11
2024-01-20T01:10:17.911Z,94.65
2024-01-20T01:12:45.302Z,95.04
2024-01-20T01:15:12.636Z,94.95
2024-01-20T01:17:39.717Z,94.92
2024-01-20T01:20:07.670Z,95.12
2024-01-20T01:22:35.339Z,95.13
2024-01-20T01:25:03.627Z,95.04
2024-01-20T01:27:32.847Z,94.81
2024-01-20T01:30:00.040Z,95.61
2024-01-20T01:32:27.485Z,95.32
2024-01-20T01:34:56.064Z,94.92
2024-01-20T01:37:23.355Z,95.43
2024-01-20T01:39:50.989Z,94.35
2024-01-20T01:42:20.301Z,94.59
2024-01-20T01:44:47.493Z,94.75
2024-01-20T01:47:15.348Z,94.05
2024-01-20T01:49:43.857Z,94.75
2024-01-20T01:52:11.578Z,94.15
2024-01-20T01:54:39.021Z,94.36
2024-01-20T01:57:07.312Z,94.30
2024-01-20T01:59:35.976Z,94.42
2024-01-20T02:02:03.659Z,94.17
2024-01-20T02:04:30.894Z,94.62
2024-01-20T02:06:58.759Z,94.66
2024-01-20T02:09:26.507Z,95.01
2024-01-20T02:11:55.163Z,94.61
2024-01-20T02:14:22.843Z,94.45
2024-01-20T02:16:50.297Z,95.12
2024-01-20T02:19:17.540Z,94.39
2024-01-20T02:21:44.886Z,94.79
2024-01-20T02:24:13.506Z,94.53
2024-01-20T02:26:42.080Z,95.07
2024-01-20T02:29:09.335Z,94.67
2024-01-20T02:31:39.653Z,94.90
2024-01-20T02:34:07.156Z,94.57
2024-01-20T02:36:34.781Z,94.54
2024-01-20T02:39:01.985Z,94.97
2024-01-20T02:41:29.404Z,94.33
2024-01-20T02:43:56.581Z,95.00
2024-01-20T02:46:23.722Z,95.33
2024-01-20T02:48:51.483Z,94.41
2024-01-20T02:51:19.058Z,94.64
2024-01-20T02:53:46.215Z,95.18
2024-01-20T02:56:13.864Z,95.02
2024-01-20T02:58:40.987Z,94.80
2024-01-20T03:01:08.495Z,95.01
2024-01-20T03:03:35.784Z,94.56
2024-01-20T03:06:04.065Z,94.67
2024-01-20T03:08:31.661Z,94.86
2024-01-20T03:10:59.079Z,94.99
2024-01-20T03:13:26.578Z,94.62
2024-01-20T03:15:54.033Z,94.58
2024-01-20T03:18:21.330Z,94.93
2024-01-20T03:20:48.415Z,94.40
2024-01-20T03:23:15.885Z,94.55
2024-01-20T03:25:43.435Z,94.61
2024-01-20T03:28:10.655Z,94.67
2024-01-20T03:30:37.987Z,94.73
2024-01-20T03:33:05.499Z,94.69
2024-01-20T03:35:33.038Z,94.88
2024-01-20T03:38:01.477Z,95.25
2024-01-20T03:40:29.896Z,94.74
2024-01-20T03:42:57.388Z,94.66
2024-01-20T03:45:25.467Z,94.80
2024-01-20T03:47:52.707Z,94.07
2024-01-20T03:50:20.125Z,94.05
2024-01-20T03:52:47.503Z,94.97
2024-01-20T03:55:14.516Z,94.46
2024-01-20T03:57:41.904Z,94.57
2024-01-20T04:00:10.747Z,94.70
2024-01-20T04:02:38.605Z,94.35
2024-01-20T04:05:06.629Z,94.33
2024-01-20T04:07:34.130Z,94.48
2024-01-20T04:10:01.487Z,94.73
2024-01-20T04:12:30.437Z,94.43
2024-01-20T04:14:58.327Z,94.93
2024-01-20T04:17:25.719Z,94.20
2024-01-20T04:19:52.915Z,94.84
2024-01-20T04:22:21.074Z,94.14
2024-01-20T04:24:48.543Z,94.75
2024-01-20T04:27:15.981Z,94.53
2024-01-20T04:29:43.364Z,94.43
2024-01-20T04:32:11.318Z,94.68
2024-01-20T04:34:38.795Z,95.18
2024-01-20T04:37:06.431Z,94.75
2024-01-20T04:39:33.969Z,95.13
2024-01-20T04:42:01.613Z,94.74
2024-01-20T04:44:28.820Z,94.71
2024-01-20T04:46:56.088Z,95.01
2024-01-20T04:49:23.661Z,94.23
2024-01-20T04:51:52.288Z,95.36
2024-01-20T04:54:19.489Z,94.51
2024-01-20T04:56:46.789Z,95.23
2024-01-20T04:59:14.471Z,95.07
2024-01-20T05:01:42.694Z,94.71
2024-01-20T05:04:10.046Z,94.82
2024-01-20T05:06:37.304Z,94.46
2024-01-20T05:09:05.926Z,95.17
2024-01-20T05:11:33.495Z,95.20
2024-01-20T05:14:00.608Z,95.34
2024-01-20T05:16:28.079Z,95.24
2024-01-20T05:18:55.526Z,95.06
2024-01-20T05:21:23.731Z,95.87
2024-01-20T05:23:50.959Z,95.90
2024-01-20T05:26:18.235Z,95.98
2024-01-20T05:28:45.463Z,96.26
2024-01-20T05:31:12.764Z,96.57
2024-01-20T05:33:40.308Z,95.84
2024-01-20T05:36:08.032Z,95.80
2024-01-20T05:38:35.338Z,95.03
2024-01-20T05:41:02.687Z,95.34
2024-01-20T05:43:30.920Z,95.78
2024-01-20T05:45:58.532Z,96.38
2024-01-20T05:48:26.689Z,95.25
2024-01-20T05:50:53.955Z,95.88
2024-01-20T05:53:22.230Z,95.52
2024-01-20T05:55:50.081Z,95.74
2024-01-20T05:58:17.462Z,95.92
2024-01-20T06:00:44.873Z,94.75
2024-01-20T06:03:12.334Z,95.06
2024-01-20T06:05:39.382Z,95.62
2024-01-20T06:08:06.972Z,95.58
2024-01-20T06:10:34.272Z,95.51
2024-01-20T06:13:01.552Z,94.61
2024-01-20T06:15:28.935Z,95.07
2024-01-20T06:17:56.228Z,94.84
2024-01-20T06:20:23.659Z,95.00
2024-01-20T06:22:51.096Z,95.17
2024-01-20T06:25:18.484Z,95.54
2024-01-20T06:27:47.052Z,94.98
2024-01-20T06:30:14.469Z,95.26
2024-01-20T06:32:41.973Z,95.25
2024-01-20T06:35:09.928Z,93.86
2024-01-20T06:37:37.549Z,94.46
2024-01-20T06:40:05.031Z,93.97
2024-01-20T06:42:32.535Z,93.39
2024-01-20T06:45:01.310Z,93.23
2024-01-20T06:47:31.977Z,93.49
2024-01-20T06:50:00.301Z,93.29
2024-01-20T06:52:31.198Z,93.83
2024-01-20T06:54:58.705Z,93.03
2024-01-20T06:57:26.111Z,93.44
2024-01-20T06:59:53.400Z,93.03
2024-01-20T07:02:21.722Z,93.36
2024-01-20T07:04:48.886Z,92.73
2024-01-20T07:07:16.367Z,93.43
2024-01-20T07:09:43.596Z,92.26
2024-01-20T07:12:10.956Z,91.62
2024-01-20T07:14:38.202Z,92.40
2024-01-20T07:17:06.684Z,91.46
2024-01-20T07:19:34.221Z,92.42
2024-01-20T07:22:01.541Z,92.23
2024-01-20T07:24:29.370Z,91.96
2024-01-20T07:26:57.812Z,91.29
2024-01-20T07:29:25.489Z,90.79
2024-01-20T07:31:53.021Z,90.64
2024-01-20T07:34:20.948Z,91.68
2024-01-20T07:36:48.317Z,91.12
2024-01-20T07:39:15.640Z,91.02
2024-01-20T07:41:42.933Z,90.84
2024-01-20T07:44:10.207Z,91.54
2024-01-20T07:46:37.401Z,90.77
2024-01-20T07:49:04.891Z,90.83
2024-01-20T07:51:32.741Z,91.22
2024-01-20T07:53:59.973Z,91.34
2024-01-20T07:56:28.430Z,90.98
2024-01-20T07:58:55.695Z,90.71
2024-01-20T08:01:23.002Z,91.16
2024-01-20T08:03:50.326Z,91.32
2024-01-20T08:06:17.627Z,90.57
2024-01-20T08:08:46.030Z,90.24
2024-01-20T08:11:13.641Z,90.34
2024-01-20T08:13:40.953Z,90.40
2024-01-20T08:16:08.912Z,89.45
2024-01-20T08:18:36.284Z,89.94
2024-01-20T08:21:09.453Z,89.70
2024-01-20T08:23:36.754Z,89.03
2024-01-20T08:26:07.406Z,88.42
2024-01-20T08:28:34.625Z,88.81
2024-01-20T08:31:01.983Z,89.09
2024-01-20T08:33:29.581Z,88.36
2024-01-20T08:35:57.098Z,88.44
2024-01-20T08:38:24.483Z,87.65
2024-01-20T08:40:51.611Z,87.13
2024-01-20T08:43:19.512Z,87.38
2024-01-20T08:45:46.717Z,86.61
2024-01-20T08:48:14.630Z,86.99
2024-01-20T08:50:42.261Z,85.49
2024-01-20T08:53:09.417Z,85.19
2024-01-20T08:55:37.087Z,85.65
2024-01-20T08:58:04.580Z,84.40
2024-01-20T09:00:32.521Z,83.72
2024-01-20T09:02:59.911Z,82.58
2024-01-20T09:05:27.366Z,81.75
2024-01-20T09:08:06.444Z,81.87
2024-01-20T09:10:34.021Z,80.54
2024-01-20T09:13:01.049Z,79.21
2024-01-20T09:15:28.496Z,78.28
2024-01-20T09:17:56.195Z,78.55
2024-01-20T09:20:23.423Z,79.07
2024-01-20T09:22:52.082Z,78.22
2024-01-20T09:25:19.425Z,79.00
2024-01-20T09:27:46.698Z,78.60
2024-01-20T09:30:14.131Z,78.92
2024-01-20T09:32:42.305Z,79.22
2024-01-20T09:35:10.094Z,79.10
2024-01-20T09:37:40.147Z,79.83
2024-01-20T09:40:07.992Z,79.57
2024-01-20T09:42:35.626Z,78.29
2024-01-20T09:45:04.431Z,77.87
2024-01-20T09:47:31.951Z,77.65
2024-01-20T09:49:59.381Z,78.57
2024-01-20T09:52:33.474Z,78.64
2024-01-20T09:55:26.688Z,77.78
2024-01-20T09:57:55.051Z,79.41
2024-01-20T10:00:25.423Z,77.74
2024-01-20T10:02:52.523Z,78.13
2024-01-20T10:05:24.874Z,78.67
2024-01-20T10:07:52.197Z,79.46
2024-01-20T10:10:21.789Z,78.52
2024-01-20T10:12:51.709Z,78.90
2024-01-20T10:15:23.479Z,79.40
2024-01-20T10:17:50.839Z,80.14
2024-01-20T10:20:37.455Z,78.97
2024-01-20T10:23:09.174Z,79.78
2024-01-20T10:25:37.159Z,79.02
2024-01-20T10:28:04.726Z,80.20
2024-01-20T10:30:32.317Z,80.54
2024-01-20T10:35:31.159Z,79.58
2024-01-20T10:38:01.604Z,79.36
2024-01-20T10:40:29.176Z,79.27
2024-01-20T10:43:05.512Z,80.59
2024-01-20T10:45:42.860Z,81.06
2024-01-20T10:48:17.832Z,79.64
2024-01-20T10:50:49.429Z,79.42
2024-01-20T10:53:17.720Z,80.13
2024-01-20T10:55:47.273Z,79.53
2024-01-20T10:58:18.991Z,79.39
2024-01-20T11:00:48.183Z,80.38
2024-01-20T11:03:16.267Z,79.46
2024-01-20T11:05:48.711Z,79.74
2024-01-20T11:08:25.633Z,80.89
2024-01-20T11:10:56.935Z,81.49
2024-01-20T11:13:27.029Z,81.18
2024-01-20T11:15:55.127Z,81.94
2024-01-20T11:18:24.145Z,81.37
2024-01-20T11:21:04.727Z,81.85
2024-01-20T11:23:32.251Z,81.40
2024-01-20T11:26:10.691Z,81.84
2024-01-20T11:28:38.207Z,82.54
2024-01-20T11:31:06.488Z,82.60
2024-01-20T11:33:33.938Z,81.71
2024-01-20T11:36:01.659Z,81.35
2024-01-20T11:38:29.253Z,80.70
2024-01-20T11:41:04.055Z,82.57
2024-01-20T11:43:33.188Z,81.66
2024-01-20T11:46:00.550Z,81.24
2024-01-20T11:48:28.143Z,80.99
2024-01-20T11:50:56.430Z,80.41
2024-01-20T11:53:24.104Z,80.47
2024-01-20T11:55:57.045Z,79.86
2024-01-20T11:58:24.757Z,81.69
2024-01-20T12:00:53.591Z,81.27
2024-01-20T12:03:22.255Z,80.57
2024-01-20T12:05:50.317Z,80.29
2024-01-20T12:08:18.041Z,80.67
2024-01-20T12:10:48.803Z,80.81
2024-01-20T12:13:17.797Z,80.60
2024-01-20T12:15:48.198Z,80.93
2024-01-20T12:18:19.225Z,80.68
2024-01-20T12:20:46.603Z,80.87
2024-01-20T12:23:21.927Z,80.56
2024-01-20T12:25:54.707Z,80.56
2024-01-20T12:28:23.051Z,80.88
2024-01-20T12:30:50.925Z,81.28
2024-01-20T12:33:18.619Z,81.52
2024-01-20T12:35:46.602Z,81.62
2024-01-20T12:38:13.839Z,81.47
2024-01-20T12:40:42.409Z,81.64
2024-01-20T12:43:10.155Z,80.43
2024-01-20T12:45:37.522Z,80.80
2024-01-20T12:48:05.553Z,81.45
2024-01-20T12:50:33.098Z,80.71
2024-01-20T12:53:01.055Z,80.61
2024-01-20T12:55:28.306Z,80.74
2024-01-20T12:57:55.631Z,81.15
2024-01-20T13:00:23.013Z,80.54
2024-01-20T13:02:50.667Z,82.32
2024-01-20T13:05:18.464Z,82.32
2024-01-20T13:07:45.725Z,82.53
2024-01-20T13:10:12.935Z,82.63
2024-01-20T13:12:40.109Z,82.79
2024-01-20T13:15:08.315Z,83.32
2024-01-20T13:17:37.049Z,83.06
2024-01-20T13:20:05.183Z,82.62
2024-01-20T13:22:32.410Z,83.70
2024-01-20T13:25:00.246Z,83.18
2024-01-20T13:27:27.597Z,84.35
2024-01-20T13:29:55.119Z,83.74
2024-01-20T13:32:22.311Z,83.77
2024-01-20T13:34:49.777Z,84.29
2024-01-20T13:37:17.010Z,84.14
2024-01-20T13:39:44.265Z,84.12
2024-01-20T13:42:12.284Z,84.92
2024-01-20T13:44:39.662Z,85.50
2024-01-20T13:47:09.840Z,85.61
2024-01-20T13:49:37.320Z,85.88
2024-01-20T13:52:04.791Z,85.48
2024-01-20T13:54:32.066Z,86.26
2024-01-20T13:56:59.248Z,86.70
2024-01-20T13:59:28.000Z,86.69
2024-01-20T14:01:57.059Z,86.79
2024-01-20T14:04:24.613Z,86.93
2024-01-20T14:06:52.825Z,86.44
2024-01-20T14:09:20.427Z,87.13
2024-01-20T14:11:47.828Z,86.96
2024-01-20T14:14:15.817Z,87.30
2024-01-20T14:16:43.689Z,87.35
2024-01-20T14:19:11.153Z,88.04
2024-01-20T14:21:38.645Z,88.33
2024-01-20T14:24:06.179Z,87.72
2024-01-20T14:26:33.508Z,88.16
2024-01-20T14:29:01.052Z,88.04
2024-01-20T14:31:29.286Z,88.72
2024-01-20T14:33:57.482Z,88.10
2024-01-20T14:36:24.890Z,88.65
2024-01-20T14:38:51.916Z,88.59
2024-01-20T14:41:19.677Z,89.31
2024-01-20T14:43:46.803Z,89.52
2024-01-20T14:46:14.109Z,89.53
2024-01-20T14:48:41.386Z,89.42
2024-01-20T14:51:09.278Z,89.63
2024-01-20T14:53:37.059Z,89.89
2024-01-20T14:56:04.595Z,89.75
2024-01-20T14:58:31.807Z,90.59
2024-01-20T15:00:59.286Z,89.91
2024-01-20T15:03:26.657Z,90.47
2024-01-20T15:05:54.410Z,89.97
2024-01-20T15:08:21.641Z,90.10
2024-01-20T15:10:49.564Z,90.97
2024-01-20T15:13:18.076Z,91.14
2024-01-20T15:15:45.521Z,90.74
2024-01-20T15:18:14.286Z,91.64
2024-01-20T15:20:41.884Z,90.96
2024-01-20T15:23:10.060Z,91.84
2024-01-20T15:25:38.125Z,92.30
2024-01-20T15:28:05.416Z,92.04
2024-01-20T15:30:32.891Z,90.97
2024-01-20T15:33:00.670Z,91.24
2024-01-20T15:35:28.013Z,92.29
2024-01-20T15:37:55.198Z,91.77
2024-01-20T15:40:22.496Z,91.85
2024-01-20T15:42:51.047Z,91.01
2024-01-20T15:45:18.365Z,91.95
2024-01-20T15:47:45.940Z,91.90
2024-01-20T15:50:13.088Z,91.05
2024-01-20T15:52:40.438Z,91.96
2024-01-20T15:55:10.012Z,92.10
2024-01-20T15:57:37.615Z,91.49
2024-01-20T16:00:07.466Z,92.24
2024-01-20T16:02:38.520Z,91.99
2024-01-20T16:05:06.633Z,92.17
2024-01-20T16:07:35.692Z,91.25
2024-01-20T16:10:03.044Z,91.17
2024-01-20T16:12:30.995Z,92.23
2024-01-20T16:14:59.236Z,91.71
2024-01-20T16:17:26.471Z,91.98
2024-01-20T16:19:53.808Z,91.21
2024-01-20T16:22:21.014Z,91.65
2024-01-20T16:24:48.281Z,91.27
2024-01-20T16:27:16.717Z,91.22
2024-01-20T16:29:43.885Z,91.27
2024-01-20T16:32:13.086Z,91.94
2024-01-20T16:34:40.596Z,91.99
2024-01-20T16:37:08.202Z,91.96
2024-01-20T16:39:35.691Z,90.81
2024-01-20T16:44:31.268Z,91.48
2024-01-20T16:46:58.847Z,91.76
2024-01-20T16:49:26.579Z,91.68
2024-01-20T16:51:57.262Z,91.70
2024-01-20T16:54:26.065Z,91.83
2024-01-20T16:56:53.765Z,91.29
2024-01-20T16:59:21.162Z,92.21
2024-01-20T17:01:48.372Z,91.50
2024-01-20T17:04:15.883Z,92.11
2024-01-20T17:06:43.162Z,91.63
2024-01-20T17:09:10.652Z,92.29
2024-01-20T17:11:37.897Z,92.39
2024-01-20T17:14:05.387Z,91.64
2024-01-20T17:16:34.105Z,91.86
2024-01-20T17:19:04.475Z,91.83
2024-01-20T17:21:34.846Z,92.80
2024-01-20T17:24:01.936Z,91.61
2024-01-20T17:26:30.628Z,92.00
2024-01-20T17:28:59.658Z,91.77
2024-01-20T17:31:34.524Z,92.26
2024-01-20T17:34:02.565Z,93.04
2024-01-20T17:36:30.103Z,92.45
2024-01-20T17:38:57.581Z,92.86
2024-01-20T17:41:25.599Z,93.80
2024-01-20T17:43:52.711Z,93.37
2024-01-20T17:46:19.988Z,92.93
2024-01-20T17:48:47.199Z,93.11
2024-01-20T17:51:14.944Z,94.00
2024-01-20T17:53:43.263Z,94.08
2024-01-20T17:56:10.639Z,93.92
2024-01-20T17:58:37.977Z,93.44
2024-01-20T18:01:06.363Z,93.96
2024-01-20T18:03:34.184Z,93.30
2024-01-20T18:06:03.074Z,93.63
2024-01-20T18:08:30.682Z,92.99
2024-01-20T18:10:57.866Z,93.77
2024-01-20T18:13:25.064Z,92.54
2024-01-20T18:15:52.460Z,92.98
2024-01-20T18:18:20.197Z,92.12
2024-01-20T18:20:47.477Z,92.20
2024-01-20T18:23:14.752Z,92.59
2024-01-20T18:25:41.990Z,92.07
2024-01-20T18:28:09.299Z,92.17
2024-01-20T18:30:39.978Z,92.43
2024-01-20T18:33:08.661Z,91.41
2024-01-20T18:35:36.055Z,92.31
2024-01-20T18:38:03.304Z,91.77
2024-01-20T18:40:30.574Z,91.80
2024-01-20T18:42:58.952Z,91.09
2024-01-20T18:45:26.399Z,91.25
2024-01-20T18:47:53.771Z,91.37
2024-01-20T18:50:23.268Z,92.25
2024-01-20T18:52:50.607Z,91.45
2024-01-20T18:55:17.901Z,91.07
2024-01-20T18:57:46.699Z,92.23
2024-01-20T19:00:14.269Z,91.14
2024-01-20T19:02:41.606Z,92.38
2024-01-20T19:05:09.328Z,91.21
2024-01-20T19:07:36.884Z,90.57
2024-01-20T19:10:05.868Z,90.17
2024-01-20T19:12:33.123Z,90.09
2024-01-20T19:15:01.672Z,89.60
2024-01-20T19:17:32.574Z,88.35
2024-01-20T19:20:00.805Z,88.50
2024-01-20T19:22:31.047Z,87.61
2024-01-20T19:24:58.279Z,87.28
2024-01-20T19:27:27.537Z,86.73
2024-01-20T19:29:55.054Z,86.57
2024-01-20T19:32:23.622Z,86.73
2024-01-20T19:34:51.278Z,86.52
2024-01-20T19:37:18.504Z,86.72
2024-01-20T19:39:46.565Z,87.19
2024-01-20T19:42:14.432Z,86.42
2024-01-20T19:44:41.789Z,85.78
2024-01-20T19:47:09.338Z,86.09
2024-01-20T19:49:36.714Z,86.33
2024-01-20T19:52:04.530Z,86.48
2024-01-20T19:54:32.233Z,86.27
2024-01-20T19:57:00.997Z,86.10
2024-01-20T19:59:28.248Z,86.05
2024-01-20T20:01:55.332Z,86.81
2024-01-20T20:04:22.874Z,86.80
2024-01-20T20:06:52.080Z,86.00
2024-01-20T20:09:20.985Z,86.26
2024-01-20T20:11:48.460Z,86.86
2024-01-20T20:14:18.479Z,86.66
2024-01-20T20:16:46.017Z,86.16
2024-01-20T20:19:13.773Z,86.47
2024-01-20T20:21:41.653Z,86.70
2024-01-20T20:44:17.008Z,90.10
2024-01-20T20:46:44.269Z,89.64
2024-01-20T20:49:11.831Z,89.20
2024-01-20T20:51:39.204Z,89.18
2024-01-20T20:54:06.867Z,88.82
2024-01-20T20:56:34.375Z,88.45
2024-01-20T20:59:05.230Z,88.63
2024-01-20T21:01:33.026Z,87.67
2024-01-20T21:04:05.169Z,87.30
2024-01-20T21:06:36.292Z,86.95
2024-01-20T21:09:03.629Z,86.94
2024-01-20T21:11:31.395Z,86.91
2024-01-20T21:13:58.680Z,86.07
2024-01-20T21:16:27.171Z,85.46
2024-01-20T21:18:56.249Z,85.46
2024-01-20T21:21:23.899Z,85.05
2024-01-20T21:23:51.218Z,85.07
2024-01-20T21:26:22.516Z,84.88
2024-01-20T21:28:50.496Z,84.39
2024-01-20T21:31:17.915Z,84.42
2024-01-20T21:33:45.431Z,84.55
2024-01-20T21:36:13.126Z,83.54
2024-01-20T21:38:41.379Z,83.18
2024-01-20T21:41:10.651Z,81.53
2024-01-20T21:43:38.123Z,81.44
2024-01-20T21:46:05.425Z,80.10
2024-01-20T21:48:32.939Z,78.54
2024-01-20T21:51:00.326Z,78.20
2024-01-20T21:53:29.192Z,77.46
2024-01-20T21:55:56.537Z,77.76
2024-01-20T21:58:24.017Z,76.95
2024-01-20T22:00:51.492Z,77.00
2024-01-20T22:03:18.949Z,76.88
2024-01-20T22:05:46.311Z,77.46
2024-01-20T22:08:14.239Z,76.88
2024-01-20T22:10:41.595Z,76.00
2024-01-20T22:13:09.175Z,76.47
2024-01-20T22:15:37.424Z,76.55
2024-01-20T22:18:04.707Z,77.20
2024-01-20T22:20:33.793Z,76.57
2024-01-20T22:23:01.088Z,76.68
2024-01-20T22:25:29.318Z,75.92
2024-01-20T22:27:57.409Z,76.68
2024-01-20T22:30:24.816Z,76.25
2024-01-20T22:32:52.496Z,76.48
2024-01-20T22:35:19.772Z,77.11
2024-01-20T22:37:47.492Z,76.82
2024-01-20T22:40:14.818Z,77.00
2024-01-20T22:42:42.105Z,77.21
2024-01-20T22:45:11.218Z,77.25
2024-01-20T22:47:40.485Z,78.82
2024-01-20T22:50:08.107Z,78.17
2024-01-20T22:52:36.202Z,78.58
2024-01-20T22:55:03.813Z,78.97
2024-01-20T22:57:31.065Z,80.08
2024-01-20T22:59:58.216Z,80.56
2024-01-20T23:02:25.776Z,81.66
2024-01-20T23:04:55.168Z,81.17
2024-01-20T23:07:23.425Z,82.09
2024-01-20T23:09:50.729Z,83.01
2024-01-20T23:12:20.341Z,82.79
2024-01-20T23:14:47.918Z,83.18
2024-01-20T23:17:17.619Z,82.76
2024-01-20T23:19:45.057Z,82.71
2024-01-20T23:22:12.213Z,82.13
2024-01-20T23:24:39.441Z,82.58
2024-01-20T23:27:06.535Z,82.47
2024-01-20T23:29:33.796Z,81.70
2024-01-20T23:32:02.087Z,82.26
2024-01-20T23:34:29.446Z,82.09
2024-01-20T23:36:56.649Z,82.05
2024-01-20T23:39:23.737Z,82.32
2024-01-20T23:41:50.885Z,82.49
2024-01-20T23:44:19.208Z,82.92
2024-01-20T23:46:46.342Z,82.90
2024-01-20T23:49:13.789Z,83.23
2024-01-20T23:51:41.023Z,82.93
2024-01-20T23:54:08.276Z,82.86
2024-01-20T23:56:35.719Z,82.15
2024-01-20T23:59:03.558Z,82.11
